createdAt,value
2023-04-02T00:01:27.093Z,13.30
2023-04-02T00:04:12.113Z,13.50
2023-04-02T00:06:45.532Z,15.80
2023-04-02T00:09:18.216Z,14.00
2023-04-02T00:11:49.406Z,14.00
2023-04-02T00:14:28.698Z,13.90
2023-04-02T00:16:58.200Z,12.50
2023-04-02T00:19:49.212Z,14.70
2023-04-02T00:22:29.170Z,14.40
2023-04-02T00:25:01.349Z,13.50
2023-04-02T00:30:04.494Z,15.00
2023-04-02T00:32:39.717Z,15.60
2023-04-02T00:35:38.580Z,15.70
2023-04-02T00:38:31.063Z,14.50
2023-04-02T00:41:01.264Z,14.80
2023-04-02T00:43:31.970Z,14.30
2023-04-02T00:46:15.549Z,14.80
2023-04-02T00:49:09.727Z,15.70
2023-04-02T00:51:43.090Z,12.60
2023-04-02T00:54:18.232Z,12.70
2023-04-02T00:56:49.466Z,13.40
2023-04-02T00:59:36.957Z,15.10
2023-04-02T01:02:17.787Z,18.50
2023-04-02T01:05:11.735Z,12.80
2023-04-02T01:07:48.145Z,14.50
2023-04-02T01:10:23.973Z,16.70
2023-04-02T01:13:19.415Z,17.30
2023-04-02T01:16:23.928Z,16.80
2023-04-02T01:18:58.737Z,14.50
2023-04-02T01:21:53.157Z,13.90
2023-04-02T01:24:59.316Z,13.80
2023-04-02T01:27:44.089Z,13.80
2023-04-02T01:30:12.823Z,15.60
2023-04-02T01:32:43.287Z,14.70
2023-04-02T01:35:12.141Z,14.80
2023-04-02T01:38:00.394Z,16.50
2023-04-02T01:40:41.155Z,14.50
2023-04-02T01:43:26.837Z,15.40
2023-04-02T01:45:58.294Z,15.30
2023-04-02T01:51:01.482Z,16.20
2023-04-02T01:53:30.683Z,16.30
2023-04-02T01:56:00.644Z,22.40
2023-04-02T01:58:31.944Z,19.40
2023-04-02T02:01:07.061Z,18.60
2023-04-02T02:03:42.810Z,16.90
2023-04-02T02:06:16.669Z,17.20
2023-04-02T02:08:54.488Z,18.00
2023-04-02T02:11:25.133Z,19.70
2023-04-02T02:14:19.768Z,19.10
2023-04-02T02:16:48.679Z,16.10
2023-04-02T02:19:45.035Z,18.90
2023-04-02T02:22:32.832Z,18.60
2023-04-02T02:25:02.685Z,19.20
2023-04-02T02:27:46.801Z,21.10
2023-04-02T02:30:34.947Z,17.30
2023-04-02T02:33:11.048Z,18.30
2023-04-02T02:36:00.968Z,18.60
2023-04-02T02:38:39.415Z,18.70
2023-04-02T02:41:34.734Z,20.10
2023-04-02T02:44:09.601Z,21.20
2023-04-02T02:46:52.727Z,21.10
2023-04-02T02:49:28.546Z,19.30
2023-04-02T02:52:07.812Z,20.00
2023-04-02T02:54:59.881Z,20.20
2023-04-02T02:57:34.472Z,22.00
2023-04-02T03:00:06.645Z,18.50
2023-04-02T03:02:40.202Z,20.60
2023-04-02T03:05:09.512Z,21.80
2023-04-02T03:07:38.616Z,24.20
2023-04-02T03:10:30.847Z,21.60
2023-04-02T03:13:25.958Z,22.30
2023-04-02T03:16:21.561Z,22.10
2023-04-02T03:19:04.988Z,20.40
2023-04-02T03:21:57.406Z,23.20
2023-04-02T03:24:55.096Z,23.00
2023-04-02T03:27:32.609Z,22.00
2023-04-02T03:30:44.567Z,20.90
2023-04-02T03:33:21.231Z,22.90
2023-04-02T03:36:13.588Z,22.80
2023-04-02T03:38:45.015Z,21.30
2023-04-02T03:41:24.458Z,21.40
2023-04-02T03:43:54.786Z,21.70
2023-04-02T03:46:45.025Z,21.20
2023-04-02T03:49:24.985Z,21.00
2023-04-02T03:52:06.514Z,24.00
2023-04-02T03:54:35.100Z,22.40
2023-04-02T03:57:04.211Z,21.00
2023-04-02T03:59:47.183Z,22.80
2023-04-02T04:02:40.576Z,23.30
2023-04-02T04:05:38.141Z,23.30
2023-04-02T04:08:16.202Z,23.90
2023-04-02T04:10:45.959Z,23.70
2023-04-02T04:13:18.138Z,19.20
2023-04-02T04:15:58.351Z,20.70
2023-04-02T04:18:41.675Z,23.10
2023-04-02T04:21:16.460Z,18.40
2023-04-02T04:26:26.738Z,19.10
2023-04-02T04:29:15.387Z,18.10
2023-04-02T04:31:56.820Z,22.10
2023-04-02T04:34:51.673Z,19.80
2023-04-02T04:37:25.487Z,18.30
2023-04-02T04:40:12.399Z,21.50
2023-04-02T04:42:45.954Z,21.30
2023-04-02T04:45:45.591Z,21.50
2023-04-02T04:48:35.126Z,21.60
2023-04-02T04:51:34.038Z,20.90
2023-04-02T04:54:03.270Z,19.40
2023-04-02T04:56:34.934Z,20.60
2023-04-02T04:59:40.514Z,20.70
2023-04-02T05:02:18.150Z,22.80
2023-04-02T05:04:51.712Z,20.00
2023-04-02T05:07:30.662Z,23.50
2023-04-02T05:10:02.318Z,23.80
2023-04-02T05:12:47.701Z,18.50
2023-04-02T05:15:24.805Z,19.00
2023-04-02T05:18:28.703Z,21.20
2023-04-02T05:21:07.307Z,19.20
2023-04-02T05:23:46.967Z,21.50
2023-04-02T05:26:29.884Z,22.40
2023-04-02T05:29:07.591Z,25.80
2023-04-02T05:31:42.791Z,20.60
2023-04-02T05:34:13.444Z,21.60
2023-04-02T05:36:50.881Z,24.50
2023-04-02T05:39:22.395Z,23.70
2023-04-02T05:42:05.146Z,20.20
2023-04-02T05:45:26.269Z,23.50
2023-04-02T05:48:03.178Z,22.00
2023-04-02T05:50:42.630Z,20.40
2023-04-02T05:53:28.163Z,21.90
2023-04-02T05:58:40.048Z,18.60
2023-04-02T06:01:24.919Z,18.50
2023-04-02T06:04:06.887Z,17.10
2023-04-02T06:06:41.690Z,19.30
2023-04-02T06:09:25.675Z,16.80
2023-04-02T06:12:13.881Z,18.00
2023-04-02T06:14:43.389Z,15.70
2023-04-02T06:17:20.492Z,15.00
2023-04-02T06:19:50.189Z,17.00
2023-04-02T06:22:36.891Z,15.60
2023-04-02T06:25:10.889Z,14.70
2023-04-02T06:27:48.524Z,13.00
2023-04-02T06:30:28.616Z,12.70
2023-04-02T06:33:03.182Z,16.70
2023-04-02T06:35:33.901Z,14.40
2023-04-02T06:38:07.371Z,13.20
2023-04-02T06:40:41.916Z,11.20
2023-04-02T06:43:23.567Z,10.60
2023-04-02T06:46:11.259Z,12.50
2023-04-02T06:49:06.127Z,15.30
2023-04-02T06:51:35.712Z,11.60
2023-04-02T06:54:06.756Z,12.90
2023-04-02T06:56:57.665Z,12.10
2023-04-02T06:59:36.075Z,10.80
2023-04-02T07:02:25.066Z,11.60
2023-04-02T07:04:57.296Z,10.90
2023-04-02T07:07:26.622Z,12.20
2023-04-02T07:09:57.867Z,11.80
2023-04-02T07:12:27.270Z,12.00
2023-04-02T07:14:55.772Z,11.70
2023-04-02T07:17:27.319Z,12.30
2023-04-02T07:19:55.893Z,11.20
2023-04-02T07:22:28.223Z,10.30
2023-04-02T07:24:59.507Z,12.20
2023-04-02T07:27:29.229Z,11.90
2023-04-02T07:29:57.628Z,11.40
2023-04-02T07:32:25.761Z,12.20
2023-04-02T07:35:00.839Z,10.10
2023-04-02T07:37:29.734Z,11.20
2023-04-02T07:39:57.913Z,12.00
2023-04-02T07:42:26.419Z,10.50
2023-04-02T07:44:55.212Z,11.30
2023-04-02T07:47:23.308Z,9.80
2023-04-02T07:49:54.760Z,11.70
2023-04-02T07:52:23.151Z,11.70
2023-04-02T07:54:55.876Z,11.00
2023-04-02T07:57:24.534Z,11.70
2023-04-02T07:59:55.589Z,12.00
2023-04-02T08:02:26.822Z,9.90
2023-04-02T08:04:55.853Z,10.00
2023-04-02T08:07:24.436Z,10.00
2023-04-02T08:09:52.608Z,11.20
2023-04-02T08:12:24.568Z,11.90
2023-04-02T08:14:52.765Z,12.10
2023-04-02T08:17:21.246Z,10.30
2023-04-02T08:19:54.986Z,11.80
2023-04-02T08:22:26.613Z,13.60
2023-04-02T08:24:55.212Z,11.70
2023-04-02T08:27:27.674Z,14.00
2023-04-02T08:29:55.953Z,10.00
2023-04-02T08:32:32.816Z,8.80
2023-04-02T08:35:04.705Z,10.40
2023-04-02T08:37:36.396Z,13.50
2023-04-02T08:40:07.384Z,11.80
2023-04-02T08:42:44.944Z,11.60
2023-04-02T08:45:45.066Z,8.80
2023-04-02T08:48:15.291Z,9.90
2023-04-02T08:50:51.232Z,10.40
2023-04-02T08:53:23.065Z,12.20
2023-04-02T08:56:04.046Z,12.10
2023-04-02T08:58:44.374Z,11.00
2023-04-02T09:01:39.610Z,9.10
2023-04-02T09:04:17.779Z,10.60
2023-04-02T09:06:46.774Z,9.70
2023-04-02T09:09:15.859Z,10.90
2023-04-02T09:11:54.463Z,9.30
2023-04-02T09:14:51.413Z,8.10
2023-04-02T09:17:26.191Z,8.30
2023-04-02T09:20:04.169Z,8.30
2023-04-02T09:22:33.234Z,7.70
2023-04-02T09:25:04.964Z,8.90
2023-04-02T09:27:36.870Z,7.30
2023-04-02T09:30:43.834Z,7.00
2023-04-02T09:33:14.314Z,6.50
2023-04-02T09:35:50.625Z,9.80
2023-04-02T09:38:26.720Z,8.50
2023-04-02T09:41:02.215Z,9.40
2023-04-02T09:43:37.915Z,8.40
2023-04-02T09:46:23.904Z,9.70
2023-04-02T09:48:55.934Z,10.30
2023-04-02T09:51:26.052Z,8.90
2023-04-02T09:54:03.569Z,8.80
2023-04-02T09:56:38.069Z,9.20
2023-04-02T09:59:23.460Z,8.40
2023-04-02T10:02:00.324Z,7.70
2023-04-02T10:04:39.297Z,8.30
2023-04-02T10:07:30.904Z,8.40
2023-04-02T10:10:01.035Z,12.20
2023-04-02T10:12:37.079Z,8.20
2023-04-02T10:15:13.615Z,9.00
2023-04-02T10:17:44.521Z,8.70
2023-04-02T10:20:19.489Z,10.10
2023-04-02T10:22:48.155Z,9.70
2023-04-02T10:25:18.282Z,9.20
2023-04-02T10:27:56.324Z,9.30
2023-04-02T10:30:52.207Z,7.60
2023-04-02T10:33:32.504Z,7.00
2023-04-02T10:36:30.657Z,7.80
2023-04-02T10:39:38.746Z,7.90
2023-04-02T10:42:26.076Z,8.90
2023-04-02T10:44:55.477Z,5.70
2023-04-02T10:47:48.074Z,7.80
2023-04-02T10:50:26.849Z,8.70
2023-04-02T10:53:05.768Z,9.10
2023-04-02T10:55:39.906Z,8.70
2023-04-02T10:58:21.535Z,8.60
2023-04-02T11:01:04.600Z,8.30
2023-04-02T11:03:41.821Z,9.70
2023-04-02T11:06:19.260Z,11.10
2023-04-02T11:08:52.638Z,9.90
2023-04-02T11:11:22.872Z,10.90
2023-04-02T11:13:56.669Z,11.30
2023-04-02T11:16:26.288Z,12.90
2023-04-02T11:19:29.209Z,11.60
2023-04-02T11:23:25.203Z,13.30
2023-04-02T11:26:29.428Z,13.60
2023-04-02T11:29:27.326Z,13.90
2023-04-02T11:32:35.355Z,14.20
2023-04-02T11:35:33.709Z,11.00
2023-04-02T11:38:23.898Z,10.20
2023-04-02T11:40:57.266Z,11.60
2023-04-02T11:43:41.633Z,14.50
2023-04-02T11:46:18.860Z,13.60
2023-04-02T11:48:51.040Z,16.30
2023-04-02T11:51:27.873Z,10.80
2023-04-02T11:54:01.456Z,11.90
2023-04-02T12:00:09.187Z,12.00
2023-04-02T12:03:20.299Z,11.90
2023-04-02T12:05:54.796Z,10.10
2023-04-02T12:09:12.754Z,11.50
2023-04-02T12:11:42.695Z,10.80
2023-04-02T12:14:32.463Z,11.50
2023-04-02T12:17:02.796Z,9.30
2023-04-02T12:19:32.525Z,8.70
2023-04-02T12:22:00.710Z,9.90
2023-04-02T12:24:32.880Z,10.50
2023-04-02T12:27:24.758Z,8.60
2023-04-02T12:29:56.261Z,11.30
2023-04-02T12:32:30.017Z,9.10
2023-04-02T12:34:58.678Z,9.90
2023-04-02T12:37:28.797Z,10.30
2023-04-02T12:40:00.297Z,8.10
2023-04-02T12:45:46.036Z,8.00
2023-04-02T12:48:16.798Z,8.20
2023-04-02T12:50:46.255Z,8.10
2023-04-02T12:53:35.738Z,9.20
2023-04-02T12:56:04.906Z,11.00
2023-04-02T12:58:37.504Z,9.90
2023-04-02T13:01:13.694Z,8.10
2023-04-02T13:04:09.666Z,7.60
2023-04-02T13:06:39.694Z,8.30
2023-04-02T13:09:28.485Z,7.30
2023-04-02T13:11:58.505Z,6.60
2023-04-02T13:14:27.191Z,5.40
2023-04-02T13:16:55.920Z,4.60
2023-04-02T13:19:34.087Z,4.50
2023-04-02T13:22:03.182Z,4.50
2023-04-02T13:24:33.672Z,4.50
2023-04-02T13:27:02.893Z,4.30
2023-04-02T13:29:32.937Z,4.60
2023-04-02T13:32:08.741Z,2.80
2023-04-02T13:34:39.825Z,3.60
2023-04-02T13:37:13.854Z,3.70
2023-04-02T13:39:44.198Z,4.20
2023-04-02T13:42:17.004Z,4.00
2023-04-02T13:44:48.865Z,4.50
2023-04-02T13:47:18.566Z,5.80
2023-04-02T13:49:47.987Z,3.60
2023-04-02T13:52:16.763Z,4.90
2023-04-02T13:54:51.642Z,6.60
2023-04-02T13:57:22.387Z,4.70
2023-04-02T13:59:55.243Z,4.00
2023-04-02T14:02:24.967Z,4.30
2023-04-02T14:05:10.149Z,4.00
2023-04-02T14:07:54.395Z,3.70
2023-04-02T14:10:57.593Z,4.70
2023-04-02T14:13:51.158Z,4.40
2023-04-02T14:16:30.244Z,4.10
2023-04-02T14:18:58.759Z,4.30
2023-04-02T14:21:43.528Z,4.00
2023-04-02T14:24:18.868Z,4.60
2023-04-02T14:27:08.871Z,4.80
2023-04-02T14:30:05.597Z,4.40
2023-04-02T14:33:05.950Z,4.00
2023-04-02T14:35:39.263Z,7.40
2023-04-02T14:38:32.894Z,4.40
2023-04-02T14:41:14.581Z,3.70
2023-04-02T14:44:03.746Z,5.60
2023-04-02T14:46:35.529Z,5.00
2023-04-02T14:49:26.902Z,4.70
2023-04-02T14:52:07.126Z,4.30
2023-04-02T14:55:01.196Z,4.50
2023-04-02T14:57:33.036Z,6.10
2023-04-02T15:00:55.304Z,5.80
2023-04-02T15:04:00.384Z,5.40
2023-04-02T15:06:43.178Z,5.90
2023-04-02T15:09:15.377Z,6.20
2023-04-02T15:11:51.846Z,6.80
2023-04-02T15:14:32.136Z,8.20
2023-04-02T15:17:10.856Z,6.60
2023-04-02T15:19:39.458Z,8.50
2023-04-02T15:22:22.584Z,8.20
2023-04-02T15:25:37.242Z,8.80
2023-04-02T15:28:35.203Z,8.90
2023-04-02T15:31:06.647Z,8.50
2023-04-02T15:33:39.472Z,9.00
2023-04-02T15:36:23.218Z,8.60
2023-04-02T15:39:14.191Z,9.60
2023-04-02T15:41:53.732Z,11.40
2023-04-02T15:44:25.486Z,10.30
2023-04-02T15:47:09.238Z,11.00
2023-04-02T15:49:42.909Z,11.50
2023-04-02T15:52:34.787Z,10.20
2023-04-02T15:55:43.860Z,14.10
2023-04-02T15:58:29.852Z,12.30
2023-04-02T16:01:24.316Z,10.50
2023-04-02T16:04:19.566Z,11.00
2023-04-02T16:07:19.900Z,11.80
2023-04-02T16:10:10.193Z,12.70
2023-04-02T16:15:18.205Z,22.50
2023-04-02T16:17:55.361Z,17.70
2023-04-02T16:20:35.681Z,21.50
2023-04-02T16:23:17.583Z,28.90
2023-04-02T16:26:19.303Z,22.30
2023-04-02T16:29:14.760Z,18.90
2023-04-02T16:32:04.336Z,19.90
2023-04-02T16:34:57.637Z,23.30
2023-04-02T16:37:39.083Z,14.70
2023-04-02T16:40:34.227Z,12.50
2023-04-02T16:43:21.580Z,14.30
2023-04-02T16:46:38.909Z,14.40
2023-04-02T16:49:42.809Z,12.70
2023-04-02T16:52:27.000Z,10.80
2023-04-02T16:55:16.683Z,21.60
2023-04-02T16:57:52.635Z,15.30
2023-04-02T17:00:24.994Z,14.30
2023-04-02T17:03:07.836Z,13.20
2023-04-02T17:05:39.687Z,11.40
2023-04-02T17:08:23.868Z,12.50
2023-04-02T17:10:53.960Z,15.00
2023-04-02T17:13:46.807Z,19.30
2023-04-02T17:16:27.721Z,11.20
2023-04-02T17:18:59.946Z,26.40
2023-04-02T17:21:30.180Z,17.10
2023-04-02T17:24:02.290Z,20.60
2023-04-02T17:26:32.837Z,16.70
2023-04-02T17:29:04.805Z,17.90
2023-04-02T17:31:37.653Z,17.40
2023-04-02T17:34:15.061Z,14.10
2023-04-02T17:36:53.783Z,17.70
2023-04-02T17:39:45.111Z,20.80
2023-04-02T17:42:15.867Z,18.60
2023-04-02T17:45:05.526Z,23.40
2023-04-02T17:47:33.844Z,17.90
2023-04-02T17:50:31.370Z,19.70
2023-04-02T17:53:49.536Z,15.50
2023-04-02T17:56:41.134Z,18.90
2023-04-02T17:59:24.106Z,22.00
2023-04-02T18:02:54.005Z,15.40
2023-04-02T18:05:45.945Z,12.50
2023-04-02T18:08:24.453Z,11.00
2023-04-02T18:11:15.056Z,13.90
2023-04-02T18:13:51.543Z,9.90
2023-04-02T18:16:36.757Z,11.40
2023-04-02T18:19:44.072Z,13.20
2023-04-02T18:22:19.698Z,13.50
2023-04-02T18:25:15.024Z,14.90
2023-04-02T18:28:05.016Z,13.30
2023-04-02T18:30:50.205Z,13.70
2023-04-02T18:33:20.483Z,14.50
2023-04-02T18:36:01.881Z,13.00
2023-04-02T18:38:45.715Z,12.40
2023-04-02T18:41:39.081Z,9.90
2023-04-02T18:44:27.748Z,9.20
2023-04-02T18:47:17.493Z,10.10
2023-04-02T18:50:00.735Z,10.90
2023-04-02T18:52:30.867Z,10.50
2023-04-02T18:55:14.029Z,12.90
2023-04-02T18:57:43.162Z,11.10
2023-04-02T19:00:22.557Z,9.00
2023-04-02T19:03:02.966Z,13.10
2023-04-02T19:05:35.741Z,10.90
2023-04-02T19:08:22.033Z,11.70
2023-04-02T19:11:01.782Z,11.60
2023-04-02T19:13:33.744Z,8.10
2023-04-02T19:16:15.032Z,7.30
2023-04-02T19:18:53.670Z,10.80
2023-04-02T19:22:00.214Z,9.70
2023-04-02T19:24:47.533Z,9.50
2023-04-02T19:27:54.105Z,7.20
2023-04-02T19:30:57.922Z,9.20
2023-04-02T19:33:43.610Z,8.30
2023-04-02T19:36:33.380Z,10.20
2023-04-02T19:39:17.299Z,8.70
2023-04-02T19:42:08.513Z,7.30
2023-04-02T19:44:38.919Z,7.10
2023-04-02T19:47:13.871Z,8.20
2023-04-02T19:49:42.216Z,8.80
2023-04-02T19:52:11.241Z,7.30
2023-04-02T19:54:40.033Z,10.00
2023-04-02T19:57:12.845Z,7.80
2023-04-02T19:59:44.323Z,5.80
2023-04-02T20:02:12.813Z,10.10
2023-04-02T20:04:42.720Z,8.50
2023-04-02T20:07:13.148Z,8.40
2023-04-02T20:09:43.785Z,10.60
2023-04-02T20:12:13.673Z,7.90
2023-04-02T20:14:42.076Z,9.80
2023-04-02T20:17:17.005Z,9.30
2023-04-02T20:19:47.086Z,10.80
2023-04-02T20:22:21.240Z,9.20
2023-04-02T20:24:52.268Z,10.00
2023-04-02T20:27:23.407Z,9.30
2023-04-02T20:29:54.039Z,9.40
2023-04-02T20:32:23.028Z,9.90
2023-04-02T20:34:51.618Z,13.70
2023-04-02T20:37:20.724Z,9.70
2023-04-02T20:39:54.624Z,8.50
2023-04-02T20:42:23.016Z,10.80
2023-04-02T20:44:55.408Z,10.50
2023-04-02T20:47:27.525Z,9.00
2023-04-02T20:49:57.767Z,9.50
2023-04-02T20:52:32.420Z,8.20
2023-04-02T20:55:01.906Z,9.00
2023-04-02T20:57:36.907Z,8.60
2023-04-02T21:00:08.376Z,10.20
2023-04-02T21:02:39.191Z,10.10
2023-04-02T21:05:09.233Z,7.40
2023-04-02T21:07:38.546Z,8.80
2023-04-02T21:10:10.825Z,8.90
2023-04-02T21:12:41.034Z,8.10
2023-04-02T21:15:16.717Z,8.70
2023-04-02T21:17:45.719Z,8.70
2023-04-02T21:20:14.671Z,9.00
2023-04-02T21:22:43.252Z,8.10
2023-04-02T21:25:14.514Z,8.80
2023-04-02T21:27:45.658Z,7.40
2023-04-02T21:30:19.446Z,9.00
2023-04-02T21:32:50.533Z,9.40
2023-04-02T21:35:23.064Z,7.10
2023-04-02T21:37:55.238Z,8.20
2023-04-02T21:40:29.757Z,8.90
2023-04-02T21:42:59.878Z,6.50
2023-04-02T21:45:38.261Z,8.40
2023-04-02T21:48:13.633Z,6.20
2023-04-02T21:50:44.263Z,8.20
2023-04-02T21:53:16.969Z,8.70
2023-04-02T21:58:23.228Z,8.30
2023-04-02T22:00:52.658Z,6.30
2023-04-02T22:03:41.335Z,7.30
2023-04-02T22:06:20.747Z,8.40
2023-04-02T22:08:57.021Z,8.20
2023-04-02T22:11:37.280Z,7.40
2023-04-02T22:14:06.261Z,5.70
2023-04-02T22:16:47.125Z,6.20
2023-04-02T22:19:16.132Z,6.00
2023-04-02T22:21:49.623Z,7.20
2023-04-02T22:24:25.438Z,8.20
2023-04-02T22:26:55.982Z,6.30
2023-04-02T22:29:24.459Z,6.60
2023-04-02T22:31:55.621Z,7.40
2023-04-02T22:34:25.538Z,9.30
2023-04-02T22:36:57.196Z,7.50
2023-04-02T22:39:26.596Z,8.80
2023-04-02T22:41:57.228Z,7.20
2023-04-02T22:44:29.300Z,8.60
2023-04-02T22:49:30.250Z,8.60
2023-04-02T22:52:07.343Z,10.80
2023-04-02T22:54:35.916Z,10.70
2023-04-02T22:57:06.833Z,9.50
2023-04-02T22:59:39.447Z,9.00
2023-04-02T23:02:07.814Z,9.20
2023-04-02T23:04:39.190Z,7.50
2023-04-02T23:07:08.360Z,8.30
2023-04-02T23:09:43.400Z,8.60
2023-04-02T23:12:23.633Z,8.30
2023-04-02T23:14:52.962Z,7.90
2023-04-02T23:20:07.318Z,6.10
2023-04-02T23:22:38.783Z,6.40
2023-04-02T23:25:08.180Z,5.20
2023-04-02T23:27:37.333Z,6.00
2023-04-02T23:30:16.818Z,6.10
2023-04-02T23:32:56.174Z,6.30
2023-04-02T23:35:46.562Z,11.30
2023-04-02T23:38:43.233Z,6.90
2023-04-02T23:42:43.540Z,7.50
2023-04-02T23:45:30.343Z,5.40
2023-04-02T23:48:18.400Z,7.10
2023-04-02T23:51:25.779Z,5.90
2023-04-02T23:54:19.648Z,6.10
2023-04-02T23:56:55.076Z,6.50
2023-04-02T23:59:35.802Z,6.00
